x

9410840 - Santa Monica Pier (icac1) Weather Station

7:12 - Fri 23rd Jun 2017 All times are PDT. -7 hours from GMT.

  • Wind
    5mph, 7mph gusts
  • Sea Temp 67°f
  • Air Temp 63°f
  • Sea Pressure 1012.8mb
  • 9410840 - Santa Monica Pier
  • 9410840 - Santa Monica Pier

More Historic Weather Station data

Upgrade to MSW Pro to gain access to the past 30 days of data for over 8000 Wavebouys and Weather Stations around the globe.

Join Pro

Comparision Forecast

View Surf forecast
   
ven. 06/23 7:12 5 7 mph 1012.8mb 67f 63f
7:06 7 8 mph 1012.7mb 67f 63f
7:00 5 6 mph 1012.7mb 66f 63f
6:54 5 7 mph 1012.7mb 66f 64f
6:48 6 7 mph 1012.7mb 66f 64f
6:42 6 7 mph 1012.6mb 66f 64f
6:36 6 7 mph 1012.6mb 66f 64f
6:30 7 8 mph 1012.5mb 66f 64f
6:24 6 9 mph 1012.5mb 66f 64f
6:18 7 8 mph - - -
6:12 5 8 mph 1012.4mb 65f 64f
6:06 6 8 mph 1012.3mb 65f 64f
6:00 5 6 mph 1012.2mb 65f 64f
5:54 5 6 mph 1012.2mb 65f 64f
5:48 3 6 mph - - -
5:42 3 6 mph 1012mb 66f 63f
5:36 6 6 mph 1012mb 66f 63f
5:30 5 6 mph 1012mb 66f 63f
5:24 3 6 mph 1011.8mb 66f 63f
5:18 5 6 mph - - -
5:12 6 6 mph 1011.7mb 67f 63f
5:06 5 6 mph 1011.6mb 67f 63f
5:00 5 6 mph 1011.5mb 67f 63f
4:54 5 7 mph 1011.4mb 67f 63f
4:48 3 5 mph 1011.4mb 67f 63f
4:42 3 5 mph 1011.4mb 67f 63f
4:36 5 6 mph 1011.3mb 67f 63f
4:30 5 6 mph 1011.3mb 67f 63f
4:24 3 6 mph 1011.2mb 67f 63f
4:18 2 5 mph 1011.3mb 67f 63f
4:12 5 6 mph 1011.3mb 67f 63f
4:06 5 6 mph 1011.3mb 67f 63f
4:00 5 7 mph 1011.3mb 67f 63f
3:54 7 8 mph 1011.4mb 67f 63f
3:48 6 7 mph 1011.4mb 67f 63f
3:42 6 7 mph 1011.5mb 67f 63f
3:36 7 8 mph 1011.5mb 67f 63f
3:30 6 7 mph 1011.6mb 67f 63f
3:24 6 8 mph 1011.5mb 67f 63f
3:18 6 8 mph - - -
3:12 6 9 mph 1011.6mb 67f 64f
3:06 7 9 mph 1011.7mb 67f 64f
3:00 5 7 mph 1011.8mb 67f 64f
2:54 6 7 mph 1011.8mb 67f 64f
2:48 6 6 mph - - -
2:42 3 6 mph 1011.9mb 67f 64f
2:36 3 5 mph 1011.9mb 67f 64f
2:30 3 5 mph 1012mb 67f 64f
2:24 3 6 mph 1011.9mb 67f 64f
2:18 5 6 mph - - -
2:12 6 6 mph 1011.9mb 67f 64f
2:06 6 6 mph 1012mb 67f 64f
2:00 5 6 mph 1012mb 67f 64f
1:54 3 5 mph 1012mb 67f 64f
1:48 2 5 mph - - -
1:42 3 5 mph 1011.9mb 67f 64f
1:36 5 6 mph 1011.9mb 67f 64f
1:30 5 6 mph 1011.9mb 67f 64f
1:24 2 3 mph 1011.9mb 67f 64f
1:18 3 5 mph 1012mb 67f 64f
1:12 3 5 mph 1012mb 67f 64f
1:06 3 5 mph 1011.9mb 67f 64f
1:00 3 5 mph 1011.9mb 67f 64f
12:54 3 3 mph 1011.9mb 67f 64f
12:48 3 3 mph 1011.9mb 67f 64f
12:42 3 5 mph 1011.9mb 67f 64f
12:36 5 5 mph 1011.9mb 67f 64f
12:30 3 5 mph 1012mb 67f 63f
12:24 2 3 mph 1012.1mb 66f 63f
12:18 2 3 mph 1012.1mb 66f 63f
12:12 2 5 mph 1012.1mb 65f 63f
12:06 3 5 mph 1012.2mb 65f 63f
12:00 5 6 mph 1012.1mb 64f 63f
jeu. 06/22 11:42 5 6 mph 1012.1mb - -
11:36 3 5 mph 1012.2mb - -
11:30 3 5 mph 1012.2mb 62f 64f
11:24 3 6 mph 1012.2mb 62f 64f
11:18 3 6 mph 1012.3mb 62f 64f
11:12 3 6 mph 1012.3mb 63f 64f
11:06 3 5 mph 1012.3mb 63f 64f
11:00 3 5 mph 1012.3mb 63f 64f
10:54 3 5 mph 1012.2mb 63f 64f
10:48 3 5 mph 1012.1mb 63f 64f
10:42 3 5 mph 1012.1mb 63f -
10:36 2 6 mph 1012.1mb 63f -
10:30 5 8 mph 1012.1mb 63f 64f
10:24 5 6 mph 1012mb 63f 64f
10:18 5 6 mph 1012mb 63f 64f
10:12 5 7 mph 1012mb 63f 64f
10:06 5 7 mph 1011.9mb 63f 64f
10:00 5 6 mph 1011.8mb 63f 64f
9:54 3 6 mph 1011.7mb 63f 64f
9:48 5 6 mph - - -
9:42 5 6 mph 1011.6mb 63f 64f
9:36 6 7 mph 1011.4mb 63f 64f
9:30 3 7 mph 1011.3mb 63f 64f
9:24 5 7 mph 1011.1mb 63f 64f
9:18 6 6 mph 1011mb 63f 64f
9:12 6 7 mph 1010.9mb 63f 64f
9:06 5 6 mph 1010.9mb 63f 64f
9:00 5 6 mph 1010.8mb 63f 64f
8:54 6 7 mph 1010.8mb 63f 64f
8:48 5 6 mph - - -
8:42 6 7 mph 1010.7mb 63f 64f
8:36 7 7 mph 1010.7mb 63f 64f
8:30 6 8 mph 1010.7mb 63f 64f
8:24 6 8 mph 1010.6mb 63f 64f
8:18 5 8 mph - - -
8:12 7 8 mph 1010.5mb 63f 64f
8:06 6 9 mph 1010.5mb 63f 64f
8:00 7 9 mph 1010.5mb 63f 64f
7:54 6 8 mph 1010.5mb 63f 64f
7:48 6 9 mph - - -
7:42 6 10 mph 1010.4mb 63f 64f
7:36 7 9 mph 1010.4mb 64f 64f
7:30 9 10 mph 1010.4mb 63f 64f
7:24 6 9 mph 1010.3mb 64f 64f
7:18 7 9 mph - - -
7:12 7 9 mph 1010.3mb 65f 64f
7:06 7 9 mph 1010.3mb 64f 64f
7:00 8 9 mph 1010.2mb 64f 64f
6:54 9 10 mph 1010.1mb 64f 64f
6:48 8 9 mph 1010.1mb - -
6:42 7 8 mph 1010mb 64f 64f
6:36 8 9 mph 1009.9mb 65f 64f
6:30 7 9 mph 1009.9mb 65f 64f
6:24 7 8 mph 1009.8mb 65f 64f
6:18 7 8 mph - - -
6:12 7 9 mph 1009.8mb 65f 65f
6:06 8 9 mph 1009.8mb 65f 65f
6:00 7 9 mph 1009.8mb 65f 65f
5:48 7 8 mph - - -
5:42 7 8 mph 1009.8mb 66f 65f
5:36 8 9 mph 1009.8mb 67f 65f
5:30 8 9 mph 1009.8mb 67f 64f
5:24 8 9 mph 1009.8mb 67f 65f
5:18 7 9 mph - - -
5:12 8 9 mph 1009.9mb 67f 64f
5:06 8 9 mph 1009.8mb 68f 64f
5:00 8 10 mph 1009.8mb 68f 64f
4:48 8 10 mph 1009.9mb - -
4:42 9 10 mph 1009.9mb 68f 64f
4:36 8 9 mph 1010mb 68f 64f
4:30 8 9 mph 1010.1mb 68f 64f
4:24 8 9 mph 1010.1mb 68f 64f
4:00 8 9 mph 1010.2mb 68f 64f
3:54 8 9 mph 1010.2mb 68f 64f
3:48 8 9 mph 1010.2mb - -
3:42 8 9 mph 1010.2mb 68f 64f
3:36 8 9 mph 1010.3mb 68f 64f
3:30 8 9 mph 1010.4mb 68f 64f
3:24 8 9 mph 1010.4mb 68f 64f
3:18 8 9 mph - - -
3:12 8 9 mph 1010.5mb 68f 64f
3:06 8 10 mph 1010.5mb 68f 64f
3:00 8 9 mph 1010.5mb 68f 64f
2:54 7 9 mph 1010.5mb 68f 64f
2:48 8 9 mph 1010.6mb - -
2:42 8 9 mph 1010.6mb 68f 64f
2:36 8 9 mph 1010.6mb 68f 64f
2:30 8 9 mph 1010.8mb 68f 64f
2:24 9 10 mph 1010.7mb 68f 64f
2:18 9 9 mph 1010.7mb 68f 64f
2:12 8 10 mph 1010.8mb 68f 64f
2:06 8 9 mph 1010.8mb 68f 64f
2:00 8 10 mph 1010.8mb 68f 63f
1:54 9 9 mph 1010.8mb 68f 63f
1:48 8 9 mph 1010.8mb 68f 63f
1:42 9 10 mph 1010.9mb 68f 63f
1:36 8 9 mph 1011mb 68f 63f
1:30 9 11 mph 1010.9mb 68f 63f
1:24 9 10 mph 1011mb 67f 63f
1:18 10 11 mph - - -
1:12 10 11 mph 1011.1mb 67f 63f
1:06 10 11 mph 1011.1mb 67f 63f
1:00 11 11 mph 1011.2mb 67f 63f
12:54 10 10 mph 1011.2mb 67f 63f
12:48 9 10 mph 1011.2mb 67f 63f
12:42 10 13 mph 1011.2mb 67f 63f
12:36 11 14 mph 1011.2mb 67f 63f
12:30 11 14 mph 1011.2mb 67f 63f
12:24 13 14 mph 1011.2mb 67f 63f
12:18 13 13 mph 1011.2mb 67f 63f
12:12 11 13 mph 1011.1mb 67f 63f
12:06 10 11 mph 1011.1mb 67f 63f
12:00 10 10 mph 1011mb 67f 63f
11:54 9 10 mph 1011mb 67f 63f
11:48 8 9 mph - - -
11:42 8 9 mph 1011.1mb 67f 64f
11:36 7 8 mph 1011.1mb 67f 64f
11:30 7 7 mph 1011.1mb 67f 64f
11:24 7 8 mph 1011mb 67f 64f
11:18 7 9 mph 1011mb 67f 64f
11:12 9 10 mph 1010.9mb 66f 64f
11:06 9 10 mph 1011mb 66f 64f
11:00 8 10 mph 1010.9mb 66f 64f
10:54 9 10 mph 1010.9mb 66f 64f
10:48 9 9 mph - - -
10:42 7 8 mph 1010.7mb 66f 64f
10:36 7 8 mph 1010.7mb 66f 64f
10:30 7 8 mph 1010.6mb 66f 64f
10:24 7 8 mph 1010.6mb 66f 64f
10:18 6 7 mph 1010.6mb 66f 64f
10:12 7 7 mph 1010.5mb 67f 64f
10:06 6 7 mph 1010.5mb 67f 64f
10:00 6 6 mph 1010.5mb 67f 64f
9:54 3 6 mph 1010.5mb 67f 64f
9:48 5 7 mph 1010.4mb 67f 64f
9:42 5 6 mph 1010.4mb 67f 64f
9:36 5 6 mph 1010.3mb 67f 64f
9:30 5 6 mph 1010.3mb 67f 64f
9:24 5 6 mph 1010.3mb 67f 64f
9:18 5 6 mph 1010.2mb 67f 64f
9:12 6 6 mph 1010.1mb 67f 64f
9:06 3 5 mph 1010mb 67f 65f
9:00 3 5 mph 1009.9mb 67f 65f
8:54 3 3 mph 1009.9mb 67f 65f
8:48 2 3 mph 1009.8mb 67f 65f
8:42 2 3 mph 1009.7mb 66f 64f
8:36  -  2 mph 1009.7mb 66f 65f
8:30 1 3 mph 1009.6mb 66f 64f
8:24  -  5 mph 1009.6mb 66f 64f
8:18  -  3 mph 1009.5mb 66f 64f
8:12  -  3 mph 1009.3mb 66f 64f
8:06 3 5 mph 1009.3mb 65f 64f
8:00 5 5 mph 1009.2mb 65f 63f
7:54 2 5 mph 1009.2mb 65f 63f
7:48 3 6 mph 1009.2mb 65f 63f
7:42 1 2 mph 1009.1mb 65f 63f
7:36  -  2 mph 1009.1mb 65f 63f
7:30 2 2 mph 1009.1mb 66f 63f
7:24  -  1 mph 1009mb 67f 63f
7:18  -  1 mph 1008.9mb 67f 63f
7:12  -  3 mph 1008.8mb 66f 63f
7:06 2 5 mph 1008.8mb 66f 63f
7:00 2 5 mph 1008.8mb 66f 63f
6:54 1 3 mph 1008.7mb 66f 63f
6:48 2 3 mph 1008.6mb 65f 63f
6:42 1 6 mph 1008.6mb 65f 62f
6:36 2 5 mph 1008.5mb 65f 62f
6:30 3 5 mph 1008.4mb 64f 63f
6:24 2 3 mph 1008.3mb 63f 63f
6:18  -  1 mph 1008.2mb 63f 63f
6:12  -  1 mph 1008.2mb 63f 63f
6:06  -  2 mph 1008.1mb 62f 63f
6:00 1 2 mph 1008mb 62f 62f
5:54 1 2 mph 1008mb 62f 63f
5:48 2 3 mph 1007.9mb 62f 62f
5:42  -  1 mph 1007.9mb 62f 63f
5:36  -  3 mph 1007.9mb 62f 62f
5:30 3 5 mph 1007.9mb 62f 62f
5:24 5 5 mph 1007.8mb 62f 62f
5:18 2 2 mph 1007.8mb 62f 62f
5:12 1 3 mph 1007.8mb 63f 63f
5:06 3 5 mph 1007.7mb 63f 63f
5:00 1 2 mph 1007.6mb 63f 63f
4:54 2 2 mph 1007.5mb 63f 63f
4:48  -  1 mph 1007.5mb 63f 63f
4:42  -  1 mph 1007.5mb 63f 63f
4:36  -  2 mph 1007.5mb 63f 63f
4:30  -  1 mph 1007.5mb 63f 63f
4:24  -  2 mph 1007.5mb 63f 63f
4:18 1 3 mph 1007.5mb 63f 63f
4:12 2 3 mph 1007.5mb 63f 63f
4:06 3 5 mph 1007.5mb 64f 63f
4:00 3 5 mph 1007.4mb 64f 63f
3:54 5 6 mph 1007.3mb 64f 63f
3:48 3 5 mph 1007.4mb 64f 63f
3:42 2 5 mph 1007.4mb 64f 63f
3:36 3 6 mph 1007.4mb 64f 63f
3:30 5 5 mph 1007.5mb 65f 63f
3:24 3 5 mph 1007.5mb 65f 63f
3:18 3 5 mph 1007.5mb 65f 63f
3:12 3 5 mph 1007.4mb 65f 63f
3:06 2 3 mph 1007.5mb 65f 63f
3:00 3 3 mph 1007.4mb 66f 63f
2:54 2 3 mph 1007.4mb 66f 63f
2:48 2 3 mph 1007.3mb 66f 63f
2:42 2 3 mph 1007.4mb 67f 63f
2:36 2 2 mph 1007.3mb 67f 63f
2:30  -  1 mph 1007.3mb 67f 63f
2:24 2 2 mph 1007.3mb 67f 63f
2:18 2 2 mph 1007.4mb 67f 63f
2:12 1 3 mph 1007.4mb 67f 63f
2:06 2 3 mph 1007.4mb 67f 63f
2:00 1 2 mph 1007.3mb 67f 63f
1:54  -  1 mph 1007.3mb 67f 63f
1:48 1 1 mph - - -
1:42  -  1 mph 1007.3mb 67f 63f
1:36  -  1 mph 1007.3mb 67f 63f
1:30  -  1 mph 1007.3mb 67f 63f
1:24  -  2 mph 1007.3mb 67f 63f
1:18 1 2 mph 1007.4mb 68f 63f
1:12 2 2 mph 1007.4mb 68f 63f
1:06 2 2 mph 1007.4mb 68f 63f
1:00 2 3 mph 1007.4mb 68f 63f
12:54 3 5 mph 1007.4mb 68f 63f
12:48 3 3 mph 1007.4mb 68f 63f
12:42 2 3 mph 1007.4mb 68f 63f
12:36 2 3 mph 1007.4mb 68f 63f
12:30 3 5 mph 1007.4mb 68f 63f
12:24 3 3 mph 1007.3mb 68f 63f
12:18 2 3 mph 1007.3mb 68f 63f
12:12 2 3 mph 1007.3mb 67f 63f
12:06 3 3 mph 1007.3mb 67f 63f
12:00 2 3 mph 1007.3mb 67f 63f
mer. 06/21 11:54 2 5 mph 1007.4mb 67f 63f
11:48 3 5 mph 1007.4mb 67f 63f
11:42 3 3 mph 1007.4mb - -
11:36 3 5 mph 1007.4mb - -
11:30 2 3 mph 1007.4mb 67f 63f
11:24 1 2 mph 1007.3mb 67f 63f
11:18 1 2 mph 1007.3mb 67f 63f
11:12  -  1 mph 1007.4mb 67f 63f
11:06 1 2 mph 1007.5mb 67f 63f
11:00  -  1 mph 1007.6mb 67f 63f
10:54  -  1 mph 1007.6mb 67f 63f
10:48  -  2 mph 1007.6mb 67f 64f
10:42 2 3 mph 1007.6mb 66f -
10:36 2 3 mph 1007.6mb 66f -
10:30 2 3 mph 1007.5mb 66f 64f
10:24 2 3 mph 1007.5mb 65f 64f
10:18 2 3 mph 1007.5mb 66f 64f
10:12 3 5 mph 1007.4mb 66f 64f
10:06 5 5 mph 1007.3mb 66f 64f
10:00 5 6 mph 1007.2mb 66f 64f
9:54 5 6 mph 1007.2mb 66f 64f
9:48 5 5 mph 1007.2mb 66f 64f
9:42 5 6 mph 1007.1mb 66f 64f
9:36 5 5 mph 1007mb 66f 64f
9:30 5 5 mph 1007mb 66f 64f
9:24 5 5 mph 1007mb 66f 64f
9:18 3 5 mph 1006.9mb 66f 64f
9:12 3 5 mph 1006.8mb 66f 64f
9:06 3 5 mph 1006.8mb 67f 64f
9:00 5 5 mph 1006.7mb 67f 64f
8:54 5 6 mph 1006.6mb 68f 64f
8:48 6 7 mph - - -
8:42 6 7 mph 1006.7mb 67f 64f
8:36 6 7 mph 1006.6mb 68f 64f
8:30 6 7 mph 1006.6mb 67f 64f
8:24 7 8 mph 1006.5mb 67f 64f
8:18 7 8 mph 1006.5mb 67f 64f
8:12 7 9 mph 1006.4mb 67f 64f
8:06 8 10 mph 1006.5mb 67f 64f
8:00 9 10 mph 1006.4mb 66f 64f
7:54 10 11 mph 1006.4mb 66f 64f
7:48 10 11 mph - - -
7:42 11 13 mph 1006.4mb 65f 65f
7:36 10 11 mph 1006.4mb 65f 65f
7:30 10 11 mph 1006.4mb 65f 65f
7:24 11 14 mph 1006.3mb 65f 65f
7:18 11 13 mph - - -
7:12 11 13 mph 1006.2mb 64f 65f
7:06 11 13 mph 1006.1mb 64f 65f
7:00 10 11 mph 1006.1mb 64f 65f
6:54 10 11 mph 1006.1mb 64f 65f
6:48 9 10 mph 1006.1mb - -
6:42 8 10 mph 1006mb 64f 65f
6:36 9 10 mph 1006.1mb 64f 65f
6:30 8 9 mph 1006.1mb 63f 65f
6:24 8 9 mph 1006.1mb 63f 65f
6:18 8 9 mph - - -
6:12 8 9 mph 1006.1mb 62f 65f
6:06 8 8 mph 1006.1mb 62f 65f
6:00 7 9 mph 1006mb 62f 65f
5:54 7 9 mph 1006.1mb 62f 65f
5:48 8 8 mph - - -
5:42 7 8 mph 1006.1mb 62f 65f
5:36 7 9 mph 1006.1mb 62f 65f
5:30 8 9 mph 1006.1mb 62f 65f
5:24 8 9 mph 1006.1mb 62f 65f
5:18 8 9 mph - - -
5:12 8 9 mph 1006.2mb 63f 65f
5:06 8 9 mph 1006.3mb 63f 65f
5:00 9 10 mph 1006.4mb 64f 65f
4:54 8 9 mph 1006.4mb 64f 65f
4:48 9 9 mph 1006.5mb - -
4:42 8 10 mph 1006.6mb 65f 65f
4:36 8 10 mph 1006.7mb 65f 65f
4:30 9 10 mph 1006.7mb 65f 64f
4:24 9 10 mph 1006.8mb 65f 64f
4:18 10 11 mph - - -
4:12 10 11 mph 1006.9mb 65f 64f
4:06 10 11 mph 1006.9mb 66f 64f
4:00 9 11 mph 1007mb 66f 64f
3:54 10 11 mph 1007mb 66f 64f
3:48 9 10 mph 1007.1mb - -
3:42 9 10 mph 1007.1mb 67f 64f
3:36 10 10 mph 1007.2mb 67f 64f
3:30 9 10 mph 1007.2mb 67f 64f
3:24 9 11 mph 1007.3mb 67f 64f
3:18 9 10 mph - - -
3:12 10 11 mph 1007.5mb 67f 64f
3:06 10 10 mph 1007.6mb 67f 64f
3:00 9 10 mph 1007.7mb 67f 64f
2:54 9 10 mph 1007.8mb 67f 64f
2:48 9 10 mph - - -
2:42 8 10 mph 1007.8mb 67f 64f
2:36 9 10 mph 1007.9mb 67f 64f
2:30 8 9 mph 1007.9mb 67f 64f
2:24 8 9 mph 1008mb 67f 64f
2:18 8 8 mph 1008mb 67f 64f
2:12 6 7 mph 1008.1mb 67f 64f
2:06 6 8 mph 1008.2mb 67f 63f
2:00 7 8 mph 1008.2mb 67f 63f
1:54 7 8 mph 1008.3mb 68f 63f
1:48 6 10 mph 1008.4mb 68f 62f
1:42 7 9 mph 1008.4mb 68f 62f
1:36 8 10 mph 1008.4mb 68f 62f
1:30 7 8 mph 1008.6mb 68f 62f
1:24 6 9 mph 1008.5mb 68f 62f
1:18 8 9 mph 1008.6mb 68f 62f
1:12 5 8 mph 1008.6mb 68f 62f
1:06 7 9 mph 1008.6mb 68f 62f
1:00 7 9 mph 1008.6mb 68f 62f
12:54 6 10 mph 1008.7mb 68f 62f
12:48 7 9 mph 1008.7mb 68f 62f
12:42 6 7 mph 1008.7mb 68f 62f
12:36 7 8 mph 1008.8mb 68f 61f
12:30 7 8 mph 1008.8mb 68f 61f
12:24 7 8 mph 1008.8mb 68f 61f
12:18 7 9 mph 1008.8mb 68f 61f
12:12 8 9 mph 1008.8mb 68f 61f
12:06 8 9 mph 1008.8mb 68f 61f
12:00 8 10 mph 1008.8mb 68f 61f
11:54 6 8 mph 1008.9mb 68f 62f
11:48 6 8 mph 1008.9mb 68f 62f
11:42 6 8 mph 1008.9mb 68f 62f
11:36 7 9 mph 1009mb 68f 61f
11:30 6 7 mph 1008.9mb 68f 62f
11:24 5 6 mph 1009mb 68f 62f
11:18 6 7 mph 1008.9mb 68f 61f
11:12 5 6 mph 1009mb 68f 61f
11:06 6 6 mph 1009mb 68f 61f
11:00 6 7 mph 1009mb 68f 61f
10:54 5 6 mph 1009mb 68f 61f
10:48 3 6 mph - - -
10:42 6 7 mph - 68f -
10:36 6 6 mph - 68f -
10:30 6 7 mph 1009mb 68f 61f
10:24 3 5 mph 1009mb 68f 61f
10:18 5 6 mph 1008.9mb 68f 61f
10:12 3 6 mph 1008.9mb 68f 61f
10:06 5 6 mph 1008.9mb 68f 61f
10:00 5 6 mph 1008.9mb 67f 61f
9:54 5 6 mph 1008.8mb 68f 61f
9:48 5 7 mph - - -
9:42 6 7 mph 1008.9mb 67f 61f
9:36 5 6 mph 1009mb 67f 61f
9:30 3 6 mph 1009mb 67f 61f
9:24 5 6 mph 1009mb 67f 61f
9:18 6 6 mph 1009.1mb 67f 61f
9:12 6 6 mph 1009mb 67f 61f
9:06 6 6 mph 1009mb 67f 61f
9:00 5 6 mph 1009mb 67f 61f
8:54 6 6 mph 1009mb 67f 61f
8:48 5 6 mph 1009.1mb 67f 61f
8:42 5 6 mph 1009mb 67f 61f
8:36 2 6 mph 1009mb 67f 61f
8:30 5 6 mph 1009mb 67f 61f
8:24 5 7 mph 1009mb 67f 61f
8:18 6 6 mph - - -
8:12 1 3 mph 1008.9mb 67f 62f
8:06 3 5 mph 1009mb 67f 62f
8:00 5 6 mph 1008.9mb 67f 61f
7:54 2 5 mph 1008.9mb 67f 62f
7:48 3 6 mph 1008.8mb 67f 62f
7:42 3 5 mph 1008.7mb 67f 62f
7:36 2 2 mph 1008.7mb 67f 62f
7:30 2 3 mph 1008.7mb 67f 62f
7:24 3 3 mph 1008.6mb 67f 62f
7:18 2 5 mph 1008.5mb 67f 62f
7:12 2 5 mph 1008.6mb 67f 62f
7:06 2 5 mph 1008.6mb 67f 62f
7:00 1 3 mph 1008.5mb 67f 62f
6:54 2 5 mph 1008.6mb 67f 61f
6:48 3 3 mph - - -
6:42 2 2 mph 1008.6mb 67f 61f
6:36 2 3 mph 1008.6mb 67f 61f
6:30 3 5 mph 1008.6mb 67f 62f
6:24 2 5 mph 1008.6mb 68f 61f
6:18 3 3 mph 1008.6mb 68f 61f
6:12 2 3 mph 1008.6mb 68f 62f
6:06 2 5 mph 1008.7mb 68f 61f
6:00 3 5 mph 1008.6mb 68f 62f
5:54 2 3 mph 1008.6mb 68f 62f
5:48  -  1 mph 1008.6mb 67f 62f
5:42  -  3 mph 1008.6mb 67f 61f
5:36  -  2 mph 1008.5mb 67f 61f
5:30 1 3 mph 1008.6mb 67f 61f
5:24 2 3 mph 1008.5mb 67f 61f
5:18 3 3 mph - - -
5:12 2 3 mph 1008.6mb 66f 61f
5:06 3 5 mph 1008.5mb 66f 62f
5:00 3 5 mph 1008.5mb 65f 62f
4:54 2 3 mph 1008.5mb 65f 62f
4:48 3 3 mph 1008.5mb 64f 62f
4:42 2 3 mph 1008.5mb 64f 62f
4:36 2 3 mph 1008.6mb 63f 62f
4:30 2 3 mph 1008.7mb 63f 62f
4:24 3 6 mph 1008.7mb 63f 62f
4:18 3 6 mph - - -
4:12 2 3 mph 1008.7mb 63f 62f
4:06 2 5 mph 1008.6mb 63f 62f
4:00 3 5 mph 1008.6mb 63f 62f
3:54  -  2 mph 1008.6mb 63f 62f
3:48 2 2 mph - - -
3:42 1 2 mph 1008.6mb 63f 62f
3:36 2 2 mph 1008.6mb 63f 62f
3:30 2 3 mph 1008.6mb 63f 62f
3:24 2 3 mph 1008.6mb 63f 62f
3:18 2 2 mph 1008.6mb 63f 62f
3:12  -  1 mph 1008.7mb 63f 62f
3:06  -  2 mph 1008.7mb 63f 62f
3:00 2 2 mph 1008.7mb 63f 62f
2:54 1 2 mph 1008.7mb 63f 62f
2:48 2 3 mph - - -
2:42 3 5 mph 1008.8mb 64f 62f
2:36 2 5 mph 1008.9mb 64f 62f
2:30 3 3 mph 1009mb 64f 62f
2:24 2 6 mph 1009mb 64f 62f
2:18 6 6 mph 1009.1mb 64f 62f
2:12 6 7 mph 1009.1mb 64f 61f
2:06 5 7 mph 1009.1mb 64f 62f
2:00 6 7 mph 1009.2mb 64f 61f
1:54 7 8 mph 1009.1mb 64f 62f
1:48 6 7 mph 1009.2mb 64f 62f
1:42 5 7 mph 1009.2mb 64f 62f
1:36 5 6 mph 1009.2mb 65f 62f
1:30 3 6 mph 1009.2mb 65f 62f
1:24 3 6 mph 1009.3mb 65f 62f
1:18 3 6 mph 1009.4mb 65f 62f
1:12 3 6 mph 1009.4mb 65f 62f
1:06 6 7 mph 1009.5mb 65f 62f
1:00 3 5 mph 1009.5mb 65f 62f
12:54 1 3 mph 1009.4mb 65f 62f
12:48 2 5 mph - - -
12:42 3 5 mph 1009.5mb 66f 62f
12:36 3 5 mph 1009.5mb 66f 62f
12:30 1 5 mph 1009.5mb 66f 62f
12:24 3 6 mph 1009.6mb 66f 62f
12:18 3 6 mph 1009.7mb 66f 63f
12:12 6 6 mph 1009.7mb 66f 62f
12:06 3 5 mph 1009.7mb 66f 62f
12:00 3 5 mph 1009.7mb 66f 62f
mar. 06/20 11:54 3 5 mph 1009.7mb 66f 63f
11:48 3 6 mph - - -
11:42 2 5 mph 1009.8mb 66f 63f
11:36 5 5 mph 1009.8mb 66f 63f
11:30 3 5 mph 1009.8mb 67f 63f
11:24 3 5 mph 1009.8mb 67f 63f
11:18 3 5 mph 1009.8mb 67f 63f
11:12 3 6 mph 1009.7mb 67f 63f
11:06 3 5 mph 1009.8mb 67f 63f
11:00 3 5 mph 1009.8mb 66f 63f
10:54 2 3 mph 1009.7mb 67f 63f
10:48 3 5 mph 1009.7mb 66f 63f
10:42 3 5 mph 1009.7mb 67f 63f
10:36 3 5 mph 1009.8mb 67f 63f
10:30 3 6 mph 1009.8mb 67f 63f
10:24 3 5 mph 1009.8mb 67f 63f
10:18 3 6 mph - - -
10:12 3 6 mph 1009.8mb 66f 63f
10:06 5 6 mph 1009.7mb 66f 63f
10:00 6 6 mph 1009.7mb 66f 63f
9:54 6 8 mph 1009.7mb 66f 63f
9:48 7 8 mph 1009.6mb 65f 64f
9:42 6 7 mph 1009.6mb 65f 64f
9:36 6 6 mph 1009.6mb 65f 64f
9:30 6 7 mph 1009.6mb 65f 64f
9:24 7 8 mph 1009.6mb 65f 64f
9:18 7 8 mph 1009.6mb 65f 64f
9:12 7 8 mph 1009.6mb 64f 64f
9:06 7 8 mph 1009.5mb 64f 64f
9:00 7 8 mph 1009.5mb 63f 64f
8:54 7 8 mph 1009.5mb 63f 64f
8:48 7 9 mph - - -
8:42 8 9 mph 1009.4mb 62f 64f
8:36 9 10 mph 1009.3mb 62f 65f
8:30 9 11 mph 1009.2mb 62f 65f
8:24 8 11 mph 1009.3mb 62f 65f
8:18 8 11 mph 1009.2mb 62f 65f
8:12 5 6 mph 1009.2mb 63f 65f
8:06 5 6 mph 1009.1mb 63f 65f
8:00 3 5 mph 1009mb 64f 65f
7:54 2 6 mph 1009mb 64f 65f
7:48 2 5 mph - - -
7:42 5 6 mph 1009mb 65f 65f
7:36 7 8 mph 1009mb 65f 65f
7:30 8 10 mph 1009mb 65f 64f
7:24 9 10 mph 1009.1mb 65f 64f
7:18 9 10 mph - - -
7:12 8 9 mph 1009.1mb 66f 64f
7:06 8 9 mph 1009.2mb 66f 64f
7:00 9 10 mph 1009.2mb 66f 64f
6:54 9 10 mph 1009.1mb 66f 64f
6:48 10 11 mph 1009.1mb 66f 64f
6:42 10 11 mph 1009mb 66f 64f
6:36 10 11 mph 1009.1mb 66f 64f
6:30 10 11 mph 1009mb 66f 64f
6:24 11 13 mph 1008.9mb 66f 64f
6:18 11 13 mph - - -
6:12 11 13 mph 1009mb 66f 64f
6:06 10 11 mph 1009.1mb 66f 64f
6:00 10 11 mph 1009.1mb 66f 64f
5:54 10 11 mph 1009.2mb 66f 64f
5:48 10 11 mph - - -
5:42 9 11 mph 1009.3mb 66f 64f
5:36 10 11 mph 1009.2mb 66f 64f
5:30 10 13 mph 1009.3mb 66f 64f
5:24 11 13 mph 1009.3mb 66f 64f
5:18 11 11 mph - - -
5:12 10 13 mph 1009.5mb 66f 64f
5:06 11 14 mph 1009.5mb 67f 64f
5:00 11 14 mph 1009.5mb 68f 64f
4:54 13 14 mph 1009.6mb 67f 64f
4:48 11 14 mph 1009.7mb - -
4:42 11 13 mph 1009.7mb 69f 64f
4:36 13 14 mph 1009.8mb 69f 63f
4:30 11 14 mph 1009.8mb 69f 63f
4:24 13 14 mph 1009.9mb 69f 63f
4:00 14 15 mph 1010mb 69f 63f
3:54 14 15 mph 1010.1mb 69f 63f
3:48 14 16 mph 1010.2mb - -
3:42 14 15 mph 1010.3mb 68f 63f
3:36 14 16 mph 1010.3mb 68f 63f
3:30 14 16 mph 1010.4mb 67f 63f
3:24 14 15 mph 1010.4mb 67f 63f
3:18 14 15 mph - - -
3:12 13 15 mph 1010.6mb 67f 63f
3:06 13 14 mph 1010.6mb 67f 63f
3:00 13 14 mph 1010.6mb 68f 63f
2:54 13 15 mph 1010.7mb 68f 63f
2:48 13 14 mph - - -
2:42 13 14 mph 1010.9mb 67f 62f
2:36 11 13 mph 1010.9mb 67f 62f
2:30 11 14 mph 1011mb 67f 62f
2:24 13 13 mph 1011mb 67f 62f
2:18 11 14 mph 1011.1mb 67f 62f
2:12 11 13 mph 1011.2mb 67f 62f
2:06 11 14 mph 1011.2mb 67f 62f
2:00 11 13 mph 1011.2mb 67f 62f
1:54 11 13 mph 1011.3mb 66f 62f
1:48 11 13 mph - - -
1:42 10 13 mph 1011.5mb 67f 62f
1:36 9 10 mph 1011.5mb 67f 62f
1:30 9 11 mph 1011.5mb 67f 62f
1:24 9 11 mph 1011.5mb 67f 62f
1:18 8 10 mph 1011.4mb 67f 62f
1:12 7 10 mph 1011.5mb 68f 62f
1:06 8 9 mph 1011.5mb 68f 62f
1:00 7 8 mph 1011.5mb 67f 62f
12:54 6 8 mph 1011.8mb 68f 62f
12:48 6 8 mph - - -
12:42 7 8 mph 1011.8mb 68f 61f
12:36 5 6 mph 1011.9mb 68f 61f
12:30 6 8 mph 1011.9mb 68f 61f
12:24 7 9 mph 1011.8mb 68f 61f
12:18 8 10 mph 1011.8mb 68f 61f
12:12 8 10 mph 1011.8mb 68f 61f
12:06 8 9 mph 1011.9mb 68f 60f
12:00 8 9 mph 1012mb 68f 60f
11:54 8 9 mph 1012mb 68f 60f
11:48 8 10 mph - - -
11:42 7 9 mph 1012.1mb 68f 60f
11:36 8 10 mph 1012mb 68f 60f
11:30 8 10 mph 1012mb 68f 60f
11:24 8 10 mph 1012.1mb 68f 61f
11:18 8 10 mph 1012.1mb 68f 61f
11:12 9 10 mph 1012.1mb 68f 61f
11:06 7 8 mph 1012.1mb 68f 61f
11:00 7 8 mph 1012.2mb 68f 61f
10:54 6 8 mph 1012.3mb 68f 61f
10:48 7 8 mph - - -
10:42 7 9 mph 1012.4mb 68f 61f
10:36 7 8 mph 1012.3mb 68f 61f
10:30 6 7 mph 1012.3mb 68f 61f
10:24 6 9 mph 1012.2mb 68f 61f
10:18 6 7 mph 1012.1mb 67f 61f
10:12 5 6 mph 1012.1mb 67f 62f
10:06 3 3 mph 1012.1mb 67f 62f
10:00 2 3 mph 1012mb 67f 62f
9:54 3 6 mph 1012mb 67f 62f
9:48 5 6 mph 1012mb 67f 62f
9:42 2 2 mph 1012mb 67f 62f
9:36 2 5 mph 1012.1mb 67f 62f
9:30 5 5 mph 1012.1mb 67f 62f
9:24 2 3 mph 1012mb 67f 61f
9:18 3 5 mph 1012.1mb 66f 61f
9:12 3 5 mph 1012.1mb 66f 61f
9:06 3 5 mph 1012mb 65f 61f
9:00 2 6 mph 1012mb 65f 61f
8:54 5 5 mph 1012mb 64f 61f
8:48 3 6 mph 1012mb 64f 61f
8:42 3 6 mph 1012mb 64f 61f
8:36 3 6 mph 1011.9mb 64f 61f
8:30 3 5 mph 1011.9mb 64f 61f
8:24 2 3 mph 1011.9mb 65f 61f
8:18 1 2 mph 1011.9mb 65f 61f
8:12 1 3 mph 1011.7mb 65f 61f
8:06 1 2 mph 1011.7mb 65f 61f
8:00 1 2 mph 1011.8mb 64f 61f
7:54  -  2 mph 1011.8mb 64f 61f
7:48 1 3 mph 1011.7mb 63f 61f
7:42  -  3 mph 1011.7mb 62f 61f
7:36 3 5 mph 1011.6mb 62f 61f
7:30 1 2 mph 1011.6mb 63f 61f
7:24  -  1 mph 1011.7mb 62f 61f
7:18  -  1 mph - - -
7:12 1 2 mph 1011.6mb 63f 61f
7:06  -  2 mph 1011.5mb 63f 61f
7:00 2 5 mph 1011.5mb 63f 60f
6:54 2 3 mph 1011.4mb 63f 60f
6:48  -  2 mph 1011.3mb 64f 60f
6:42  -  2 mph 1011.2mb 65f 60f
6:36 3 5 mph 1011.2mb 65f 60f
6:30 3 5 mph 1011.2mb 65f 60f
6:24  -  2 mph 1011.1mb 65f 60f
6:18 2 3 mph 1011.1mb 65f 60f
6:12  -  3 mph 1011.1mb 65f 60f
6:06 3 5 mph 1011.1mb 65f 60f
6:00 3 5 mph 1011mb 66f 60f
5:54 3 5 mph 1010.8mb 67f 61f
5:48 3 5 mph 1010.8mb 66f 60f
5:42 3 6 mph 1010.7mb 66f 61f
5:36 3 3 mph 1010.7mb 65f 61f
5:30 1 2 mph 1010.7mb 65f 61f
5:24  -  1 mph 1010.7mb 65f 61f
5:18  -  1 mph 1010.6mb 66f 61f
5:12 1 3 mph 1010.6mb 67f 61f
5:06 2 3 mph 1010.6mb 67f 61f
5:00 3 5 mph 1010.6mb 67f 61f
4:54 2 3 mph 1010.5mb 67f 61f
4:48 1 2 mph - - -
4:42 2 3 mph 1010.5mb 66f 61f
4:36  -  1 mph 1010.4mb 66f 60f
4:30 1 3 mph 1010.4mb 66f 60f
4:24 2 3 mph 1010.4mb 66f 60f
4:18 3 5 mph 1010.4mb 65f 60f
4:12 3 5 mph 1010.5mb 65f 61f
4:06 2 5 mph 1010.5mb 65f 61f
4:00 5 6 mph 1010.5mb 65f 61f
3:54 2 5 mph 1010.5mb 65f 61f
3:48 3 5 mph - - -
3:42 2 2 mph 1010.5mb 65f 61f
3:36 2 3 mph 1010.5mb 65f 61f
3:30 2 3 mph 1010.5mb 65f 61f
3:24 1 2 mph 1010.5mb 65f 61f
3:18 3 6 mph 1010.5mb 65f 61f
3:12 2 6 mph 1010.5mb 65f 61f
3:06 5 6 mph 1010.6mb 65f 61f
3:00 3 6 mph 1010.6mb 65f 61f
2:54 3 6 mph 1010.6mb 65f 61f
2:48 3 6 mph - - -
2:42 5 6 mph 1010.7mb 65f 61f
2:36 3 5 mph 1010.8mb 65f 61f
2:30 3 5 mph 1010.8mb 65f 60f
2:24 3 5 mph 1010.8mb 65f 60f
2:18 5 6 mph 1010.8mb 65f 60f
2:12 5 6 mph 1010.8mb 65f 60f
2:06 6 6 mph 1010.9mb 65f 60f
2:00 5 6 mph 1010.9mb 66f 61f
1:54 3 6 mph 1011mb 66f 61f
1:48 5 6 mph 1011.1mb 66f 61f
1:42 3 3 mph 1011.1mb 67f 61f
1:36  -  1 mph 1011.2mb 66f 61f
1:30  -  3 mph 1011.2mb 66f 61f
1:24 3 6 mph 1011.2mb 66f 61f
1:18 3 5 mph 1011.2mb 66f 61f
1:12 1 3 mph 1011.2mb 66f 61f
1:06 1 3 mph 1011.2mb 65f 61f
1:00 2 3 mph 1011.1mb 66f 61f
12:54 1 2 mph 1011.1mb 66f 61f
12:48  -  5 mph - - -
12:42 2 3 mph 1011.1mb 66f 61f
12:36 2 2 mph 1011mb 66f 61f
12:30 2 3 mph 1011.1mb 66f 61f
12:24 2 3 mph 1011.1mb 66f 61f
12:18 2 5 mph 1011.1mb 66f 61f
12:12 3 5 mph 1011.1mb 66f 61f
12:06 2 3 mph 1011.2mb 66f 61f
12:00 1 3 mph 1011.2mb 66f 62f
lun. 06/19 11:54 2 3 mph 1011.1mb 67f 62f
11:48 2 3 mph 1011.1mb 67f 62f
11:42 2 3 mph 1011.1mb - -
11:36 1 2 mph 1011.2mb - -
11:30 2 5 mph 1011.2mb 67f 61f
11:24 2 5 mph 1011.3mb 67f 62f
11:18 2 3 mph - - -
11:12 2 5 mph 1011.4mb 67f 62f
11:06 6 7 mph 1011.4mb 67f 62f
11:00 3 5 mph 1011.3mb 67f 62f
10:54 5 6 mph 1011.3mb 67f 62f
10:48 3 6 mph 1011.2mb 67f 62f
10:42 5 6 mph 1011.2mb 67f 62f
10:36 5 6 mph 1011.1mb 67f 62f
10:30 6 7 mph 1011mb 67f 62f
10:24  -  3 mph 1011mb 67f 62f
10:18 2 5 mph - - -
10:12 2 3 mph 1011mb 67f 62f
10:06 3 5 mph 1011mb 67f 62f
10:00 3 5 mph 1011mb 67f 62f
9:54 3 5 mph 1011.1mb 67f 62f
9:48 2 2 mph 1011.1mb 67f 62f
9:42 1 2 mph 1011.1mb 67f 62f
9:36 2 3 mph 1011mb 67f 61f
9:30 1 3 mph 1010.8mb 67f 61f
9:24 2 5 mph 1010.7mb 67f 61f
9:18 3 6 mph 1010.6mb 67f 61f
9:12 5 6 mph 1010.6mb 67f 61f
9:06 5 6 mph 1010.5mb 67f 61f
9:00 5 6 mph 1010.4mb 67f 62f
8:54 2 3 mph 1010.4mb 67f 62f
8:48 3 6 mph 1010.3mb - -
8:42 5 6 mph 1010.3mb 67f 62f
8:36 6 7 mph 1010.3mb 68f 61f
8:30 6 7 mph 1010.2mb 68f 61f
8:24 5 6 mph 1010.2mb 68f 62f
8:18 3 8 mph 1010.2mb 68f 62f
8:12 6 8 mph 1010.2mb 68f 61f
8:06 7 10 mph 1010.2mb 68f 62f
8:00 8 10 mph 1010.1mb 67f 62f
7:54 8 10 mph 1010.2mb 68f 62f
7:48 9 11 mph - - -
7:42 8 11 mph 1010.1mb 67f 62f
7:36 8 10 mph 1010mb 67f 63f
7:30 9 10 mph 1010mb 67f 62f
7:24 6 7 mph 1009.9mb 67f 63f
7:18 3 7 mph - - -
7:12 5 8 mph 1009.8mb 67f 63f
7:06 6 8 mph 1009.8mb 68f 63f
7:00 7 10 mph 1009.9mb 67f 62f
6:54 9 10 mph 1009.8mb 67f 63f
6:48 6 10 mph - - -
6:42 8 10 mph 1009.7mb 68f 62f
6:36 10 11 mph 1009.6mb 68f 62f
6:30 8 11 mph 1009.7mb 67f 62f
6:24 10 11 mph 1009.7mb 68f 62f
6:18 8 9 mph - - -
6:12 9 10 mph 1009.6mb 69f 62f
6:06 9 11 mph 1009.5mb 69f 62f
6:00 10 13 mph 1009.4mb 69f 62f
5:54 10 11 mph 1009.4mb 69f 63f
5:48 8 10 mph - - -
5:42 10 13 mph 1009.3mb 69f 62f
5:36 9 11 mph 1009.4mb 69f 63f
5:30 9 13 mph 1009.5mb 69f 62f
5:24 10 13 mph 1009.6mb 69f 62f
5:18 10 11 mph - - -
5:12 10 13 mph 1009.7mb 69f 63f
5:06 9 13 mph 1009.7mb 69f 63f
5:00 9 11 mph 1009.7mb 69f 63f
4:54 9 11 mph 1009.8mb 69f 63f
4:48 10 13 mph - - -
4:42 9 11 mph 1009.8mb 69f 63f
4:36 9 10 mph 1009.9mb 69f 63f
4:30 9 10 mph 1009.8mb 69f 63f
4:24 8 10 mph 1009.8mb 69f 63f
4:18 9 10 mph 1009.9mb 69f 63f
4:12 8 10 mph 1009.9mb 69f 63f
4:06 7 11 mph 1009.9mb 69f 63f
4:00 9 11 mph 1009.9mb 69f 63f
3:54 10 11 mph 1010mb 69f 63f
3:48 7 10 mph 1010mb - -
3:42 8 10 mph 1010.1mb 69f 64f
3:36 8 9 mph 1010.2mb 69f 64f
3:30 8 9 mph 1010.2mb 69f 64f